.
WxDataArchive / Data Records for 2012-04-26
2012-04-25 April 2012 2012-04-27

Data Records for Thursday, 26 April 2012

Time	Temp	Chill	HIndex	Humid	Dewpt	 Wind 	HiWind	WindDir	Rain 	Barom 
-----	----	-----	------	-----	-----	------	------	-------	-----	----- 
00:00	51.0	51.0	51.0	87	47.3	1	3	90	0.00	29.691 
00:05	51.0	51.0	51.0	87	47.3	1	4	90	0.00	29.691 
00:10	51.0	51.0	51.0	87	47.3	1	4	90	0.00	29.691 
00:15	51.0	51.0	51.0	87	47.3	1	3	90	0.00	29.682 
00:20	51.0	51.0	51.0	87	47.3	1	3	90	0.00	29.682 
00:25	51.0	51.0	51.0	87	47.3	0	3	90	0.00	29.682 
00:30	51.0	51.0	51.0	87	47.3	1	4	45	0.00	29.697 
00:35	50.8	50.8	50.8	86	46.8	3	9	90	0.00	29.697 
00:40	50.8	50.8	50.8	87	47.1	1	5	90	0.00	29.697 
00:45	50.7	50.7	50.7	86	46.7	2	6	112	0.00	29.685 
00:50	50.5	50.5	50.5	87	46.8	2	6	112	0.00	29.685 
00:55	50.4	50.4	50.4	87	46.7	2	6	112	0.00	29.685 
01:00	50.2	50.2	50.2	87	46.5	1	5	112	0.00	29.681 
01:05	49.9	49.9	49.9	87	46.2	2	5	112	0.00	29.681 
01:10	49.8	49.8	49.8	87	46.1	3	9	90	0.00	29.681 
01:15	49.8	49.8	49.8	88	46.4	2	4	112	0.00	29.669 
01:20	49.6	49.6	49.6	88	46.2	1	4	68	0.00	29.669 
01:25	49.5	49.5	49.5	88	46.1	1	4	90	0.00	29.669 
01:30	49.5	49.5	49.5	89	46.4	1	3	90	0.00	29.662 
01:35	49.4	49.4	49.4	89	46.3	1	4	90	0.00	29.662 
01:40	49.2	49.2	49.2	89	46.1	2	4	45	0.00	29.662 
01:45	49.2	49.2	49.2	89	46.1	2	5	68	0.00	29.652 
01:50	49.2	49.2	49.2	89	46.1	1	4	90	0.00	29.652 
01:55	49.1	49.1	49.1	89	46.0	1	3	90	0.00	29.652 
02:00	49.1	49.1	49.1	89	46.0	1	4	68	0.00	29.641 
02:05	49.1	49.1	49.1	89	46.0	1	4	68	0.00	29.641 
02:10	49.1	49.1	49.1	89	46.0	1	3	68	0.00	29.641 
02:15	49.2	49.2	49.2	89	46.1	2	4	68	0.00	29.639 
02:20	49.2	49.2	49.2	89	46.1	1	4	68	0.00	29.639 
02:25	49.2	49.2	49.2	89	46.1	1	4	90	0.00	29.639 
02:30	49.2	49.2	49.2	89	46.1	1	4	112	0.00	29.633 
02:35	49.2	49.2	49.2	89	46.1	1	5	68	0.00	29.633 
02:40	49.2	49.2	49.2	89	46.1	1	3	112	0.00	29.633 
02:45	49.2	49.2	49.2	89	46.1	1	2	112	0.00	29.633 
02:50	49.1	49.1	49.1	90	46.3	1	3	112	0.00	29.633 
02:55	49.1	49.1	49.1	90	46.3	1	5	112	0.01	29.633 
03:00	49.1	49.1	49.1	90	46.3	0	2	68	0.00	29.622 
03:05	49.1	49.1	49.1	90	46.3	0	2	68	0.00	29.622 
03:10	49.1	49.1	49.1	90	46.3	1	3	68	0.01	29.622 
03:15	48.9	48.9	48.9	91	46.4	0	2	135	0.00	29.618 
03:20	48.9	48.9	48.9	91	46.4	0	2	135	0.00	29.618 
03:25	48.9	48.9	48.9	91	46.4	1	3	135	0.00	29.618 
03:30	48.9	48.9	48.9	91	46.4	2	4	135	0.00	29.604 
03:35	48.9	48.9	48.9	91	46.4	1	3	112	0.00	29.604 
03:40	48.9	48.9	48.9	91	46.4	1	2	112	0.00	29.604 
03:45	48.9	48.9	48.9	91	46.4	0	2	112	0.00	29.604 
03:50	48.9	48.9	48.9	91	46.4	1	3	112	0.00	29.604 
03:55	48.8	48.8	48.8	91	46.3	0	2	112	0.00	29.604 
04:00	48.8	48.8	48.8	92	46.6	0	1	112	0.00	29.597 
04:05	48.8	48.8	48.8	92	46.6	0	1	112	0.00	29.597 
04:10	48.8	48.8	48.8	92	46.6	0	2	112	0.00	29.597 
04:15	48.8	48.8	48.8	92	46.6	0	2	112	0.00	29.603 
04:20	48.8	48.8	48.8	92	46.6	0	2	112	0.00	29.603 
04:25	48.8	48.8	48.8	92	46.6	0	1	112	0.00	29.603 
04:30	48.6	48.6	48.6	92	46.4	0	2	112	0.00	29.602 
04:35	48.6	48.6	48.6	92	46.4	0	2	112	0.00	29.602 
04:40	48.5	48.5	48.5	92	46.3	0	2	112	0.00	29.602 
04:45	48.5	48.5	48.5	93	46.6	0	1	112	0.00	29.600 
04:50	48.6	48.6	48.6	93	46.7	0	1	112	0.00	29.600 
04:55	48.6	48.6	48.6	93	46.7	0	2	112	0.00	29.600 
05:00	48.6	48.6	48.6	93	46.7	0	3	112	0.01	29.598 
05:05	48.8	48.8	48.8	93	46.9	0	2	112	0.00	29.598 
05:10	48.8	48.8	48.8	93	46.9	0	1	112	0.00	29.598 
05:15	48.9	48.9	48.9	94	47.2	0	2	112	0.00	29.606 
05:20	48.9	48.9	48.9	94	47.2	1	2	112	0.00	29.606 
05:25	49.1	49.1	49.1	94	47.4	0	2	112	0.00	29.606 
05:30	49.2	49.2	49.2	94	47.5	1	3	112	0.00	29.604 
05:35	49.4	49.4	49.4	94	47.7	0	2	112	0.00	29.604 
05:40	49.5	49.5	49.5	94	47.8	0	2	112	0.00	29.604 
05:45	49.5	49.5	49.5	94	47.8	0	2	112	0.00	29.607 
05:50	49.5	49.5	49.5	94	47.8	0	2	112	0.00	29.607 
05:55	49.5	49.5	49.5	94	47.8	0	1	112	0.00	29.607 
06:00	49.4	49.4	49.4	94	47.7	0	2	112	0.00	29.600 
06:05	49.4	49.4	49.4	94	47.7	0	1	112	0.00	29.600 
06:10	49.2	49.2	49.2	94	47.5	1	2	112	0.00	29.600 
06:15	49.2	49.2	49.2	94	47.5	0	1	112	0.00	29.603 
06:20	49.1	49.1	49.1	94	47.4	0	0	---	0.00	29.603 
06:25	49.1	49.1	49.1	94	47.4	0	1	112	0.00	29.603 
06:30	49.1	49.1	49.1	94	47.4	0	0	---	0.00	29.604 
06:35	49.2	49.2	49.2	94	47.5	0	0	---	0.00	29.604 
06:40	49.2	49.2	49.2	94	47.5	0	0	---	0.00	29.604 
06:45	49.4	49.4	49.4	94	47.7	0	0	---	0.00	29.611 
06:50	49.4	49.4	49.4	94	47.7	0	0	---	0.00	29.611 
06:55	49.5	49.5	49.5	94	47.8	0	0	---	0.00	29.611 
07:00	49.5	49.5	49.5	94	47.8	0	0	---	0.00	29.610 
07:05	49.6	49.6	49.6	94	47.9	0	0	---	0.00	29.610 
07:10	49.6	49.6	49.6	94	47.9	0	0	---	0.00	29.610 
07:15	49.8	49.8	49.8	94	48.1	0	1	112	0.00	29.622 
07:20	49.9	49.9	49.9	94	48.2	0	1	112	0.00	29.622 
07:25	49.9	49.9	49.9	94	48.2	0	0	---	0.00	29.622 
07:30	49.9	49.9	49.9	94	48.2	0	0	---	0.00	29.625 
07:35	50.1	50.1	50.1	94	48.4	0	0	---	0.00	29.625 
07:40	50.1	50.1	50.1	94	48.4	0	0	---	0.00	29.625 
07:45	50.2	50.2	50.2	94	48.5	0	0	---	0.00	29.627 
07:50	50.2	50.2	50.2	94	48.5	0	1	112	0.00	29.627 
07:55	50.2	50.2	50.2	94	48.5	0	0	---	0.00	29.627 
08:00	50.4	50.4	50.4	94	48.7	0	1	112	0.00	29.640 
08:05	50.2	50.2	50.2	94	48.5	0	0	---	0.00	29.640 
08:10	50.2	50.2	50.2	94	48.5	0	0	---	0.00	29.640 
08:15	50.4	50.4	50.4	94	48.7	0	0	---	0.00	29.652 
08:20	50.4	50.4	50.4	94	48.7	0	0	---	0.00	29.652 
08:25	50.2	50.2	50.2	94	48.5	0	0	---	0.00	29.652 
08:30	50.2	50.2	50.2	94	48.5	0	0	---	0.00	29.655 
08:35	50.4	50.4	50.4	94	48.7	0	0	---	0.00	29.655 
08:40	50.4	50.4	50.4	94	48.7	0	0	---	0.00	29.655 
08:45	50.5	50.5	50.5	94	48.8	0	0	---	0.00	29.663 
08:50	50.5	50.5	50.5	94	48.8	0	0	---	0.00	29.663 
08:55	50.7	50.7	50.7	94	49.0	0	1	112	0.00	29.663 
09:00	50.7	50.7	50.7	94	49.0	0	0	---	0.00	29.672 
09:05	50.8	50.8	50.8	94	49.1	0	2	112	0.00	29.672 
09:10	50.8	50.8	50.8	94	49.1	0	2	112	0.00	29.672 
09:15	51.0	51.0	51.0	94	49.3	0	1	112	0.00	29.675 
09:20	51.1	51.1	51.1	94	49.4	0	1	112	0.00	29.675 
09:25	51.3	51.3	51.3	94	49.6	0	0	---	0.00	29.675 
09:30	51.4	51.4	51.4	94	49.7	0	1	112	0.00	29.680 
09:35	51.4	51.4	51.4	93	49.4	0	1	112	0.00	29.680 
09:40	51.6	51.6	51.6	93	49.6	0	1	112	0.00	29.680 
09:45	51.9	51.9	51.9	93	49.9	0	1	112	0.00	29.677 
09:50	52.0	52.0	52.0	93	50.0	0	1	112	0.00	29.677 
09:55	52.3	52.3	52.3	93	50.3	0	1	112	0.00	29.677 
10:00	52.6	52.6	52.6	93	50.6	0	1	112	0.00	29.684 
10:05	53.1	53.1	53.1	93	51.1	0	2	112	0.00	29.684 
10:10	53.5	53.5	53.5	93	51.5	0	2	112	0.00	29.684 
10:15	53.9	53.9	53.9	93	51.9	1	3	112	0.00	29.686 
10:20	54.7	54.7	54.7	92	52.4	2	4	270	0.00	29.686 
10:25	55.3	55.3	55.3	91	52.7	2	4	270	0.00	29.686 
10:30	56.0	56.0	56.0	90	53.1	2	5	270	0.00	29.687 
10:35	56.3	56.3	56.3	88	52.8	2	4	270	0.00	29.687 
10:40	56.7	56.7	56.7	86	52.6	2	6	270	0.00	29.687 
10:45	57.5	57.5	57.5	84	52.7	2	7	338	0.00	29.693 
10:50	57.5	57.5	57.5	82	52.0	3	7	315	0.00	29.693 
10:55	58.0	58.0	58.0	81	52.2	2	5	292	0.00	29.693 
11:00	58.6	58.6	58.6	80	52.4	3	9	270	0.00	29.688 
11:05	58.9	58.9	58.9	79	52.4	3	7	292	0.00	29.688 
11:10	59.3	59.3	59.3	78	52.4	2	4	315	0.00	29.688 
11:15	59.8	59.8	59.8	76	52.2	2	6	315	0.00	29.697 
11:20	60.4	60.4	60.4	75	52.4	2	5	292	0.00	29.697 
11:25	60.5	60.5	60.5	74	52.2	2	5	270	0.00	29.697 
11:30	60.7	60.7	60.7	73	52.0	2	4	338	0.00	29.706 
11:35	61.0	61.0	61.0	72	51.9	2	5	270	0.00	29.706 
11:40	60.7	60.7	60.7	71	51.2	3	10	292	0.00	29.706 
11:45	61.0	61.0	61.0	71	51.5	2	4	0	0.00	29.712 
11:50	60.9	60.9	60.9	69	50.7	3	8	292	0.00	29.712 
11:55	60.9	60.9	60.9	71	51.4	2	5	0	0.00	29.712 
12:00	61.3	61.3	61.3	71	51.8	1	3	0	0.00	29.719 
12:05	61.5	61.5	61.5	69	51.2	2	6	315	0.00	29.719 
12:10	60.9	60.9	60.9	69	50.7	4	9	270	0.00	29.719 
12:15	60.4	60.4	60.4	69	50.2	3	10	315	0.00	29.726 
12:20	60.7	60.7	60.7	69	50.5	3	6	0	0.00	29.726 
12:25	60.5	60.5	60.5	69	50.3	3	11	270	0.00	29.726 
12:30	59.8	59.8	59.8	69	49.6	4	9	338	0.00	29.739 
12:35	59.3	59.3	59.3	70	49.5	3	9	270	0.00	29.739 
12:40	59.3	59.3	59.3	71	49.9	2	5	270	0.00	29.739 
12:45	59.0	59.0	59.0	71	49.6	3	6	292	0.00	29.745 
12:50	58.7	58.7	58.7	70	48.9	4	9	292	0.00	29.745 
12:55	58.4	58.4	58.4	71	49.0	3	11	0	0.00	29.745 
13:00	58.1	58.1	58.1	71	48.7	2	6	338	0.00	29.749 
13:05	58.0	58.0	58.0	71	48.6	4	11	292	0.00	29.749 
13:10	57.8	57.8	57.8	71	48.5	4	7	270	0.00	29.749 
13:15	58.0	58.0	58.0	72	49.0	3	7	0	0.00	29.761 
13:20	58.1	58.1	58.1	70	48.4	3	7	270	0.00	29.761 
13:25	57.8	57.8	57.8	70	48.1	3	9	315	0.00	29.761 
13:30	57.8	57.8	57.8	70	48.1	3	6	270	0.00	29.764 
13:35	58.1	58.1	58.1	70	48.4	2	6	292	0.00	29.764 
13:40	58.3	58.3	58.3	69	48.2	2	5	292	0.00	29.764 
13:45	59.0	59.0	59.0	69	48.8	3	7	292	0.00	29.765 
13:50	59.5	59.5	59.5	67	48.5	3	7	270	0.00	29.765 
13:55	59.3	59.3	59.3	65	47.5	3	8	315	0.00	29.765 
14:00	59.2	59.2	59.2	64	47.0	4	10	292	0.00	29.776 
14:05	59.5	59.5	59.5	65	47.7	3	6	292	0.00	29.776 
14:10	60.2	60.2	60.2	63	47.6	3	5	270	0.00	29.776 
14:15	60.2	60.2	60.2	62	47.1	3	7	292	0.00	29.778 
14:20	59.8	59.8	59.8	64	47.6	3	8	270	0.00	29.778 
14:25	60.2	60.2	60.2	63	47.6	3	9	270	0.00	29.778 
14:30	60.2	60.2	60.2	61	46.7	4	11	292	0.00	29.788 
14:35	61.0	61.0	61.0	58	46.1	4	7	315	0.00	29.788 
14:40	61.5	61.5	61.5	60	47.5	3	9	338	0.00	29.788 
14:45	60.7	60.7	60.7	60	46.7	3	7	315	0.00	29.796 
14:50	60.7	60.7	60.7	60	46.7	2	5	270	0.00	29.796 
14:55	60.9	60.9	60.9	58	46.0	3	7	338	0.00	29.796 
15:00	60.5	60.5	60.5	59	46.1	3	6	292	0.00	29.806 
15:05	60.5	60.5	60.5	60	46.5	3	6	270	0.00	29.806 
15:10	60.5	60.5	60.5	61	47.0	3	8	315	0.00	29.806 
15:15	60.7	60.7	60.7	59	46.3	3	10	338	0.00	29.813 
15:20	60.5	60.5	60.5	60	46.5	3	11	292	0.00	29.813 
15:25	60.2	60.2	60.2	61	46.7	3	7	315	0.00	29.813 
15:30	60.2	60.2	60.2	61	46.7	3	9	270	0.00	29.825 
15:35	59.8	59.8	59.8	62	46.8	4	9	315	0.00	29.825 
15:40	59.8	59.8	59.8	61	46.3	4	9	270	0.00	29.825 
15:45	59.8	59.8	59.8	62	46.8	3	7	270	0.00	29.835 
15:50	59.6	59.6	59.6	59	45.3	3	10	292	0.00	29.835 
15:55	59.5	59.5	59.5	57	44.3	3	9	315	0.00	29.835 
16:00	58.7	58.7	58.7	57	43.5	4	8	315	0.00	29.841 
16:05	58.0	58.0	58.0	58	43.3	4	11	315	0.00	29.841 
16:10	57.6	57.6	57.6	59	43.4	3	7	315	0.00	29.841 
16:15	57.6	57.6	57.6	59	43.4	2	8	270	0.00	29.844 
16:20	58.4	58.4	58.4	58	43.7	2	5	338	0.00	29.844 
16:25	59.2	59.2	59.2	55	43.0	3	6	270	0.00	29.844 
16:30	59.2	59.2	59.2	54	42.6	3	7	270	0.00	29.852 
16:35	58.7	58.7	58.7	55	42.6	3	7	338	0.00	29.852 
16:40	58.9	58.9	58.9	54	42.3	3	7	315	0.00	29.852 
16:45	58.6	58.6	58.6	51	40.5	2	9	338	0.00	29.867 
16:50	58.0	58.0	58.0	54	41.4	2	5	292	0.00	29.867 
16:55	57.6	57.6	57.6	54	41.1	2	5	292	0.00	29.867 
17:00	57.5	57.5	57.5	55	41.5	3	6	0	0.00	29.876 
17:05	57.3	57.3	57.3	57	42.2	3	7	292	0.00	29.876 
17:10	57.2	57.2	57.2	58	42.6	2	5	315	0.00	29.876 
17:15	57.3	57.3	57.3	58	42.6	1	5	0	0.00	29.880 
17:20	57.0	57.0	57.0	56	41.5	2	5	0	0.00	29.880 
17:25	56.6	56.6	56.6	56	41.1	2	6	270	0.00	29.880 
17:30	56.9	56.9	56.9	53	39.9	2	5	315	0.00	29.883 
17:35	57.0	57.0	57.0	51	39.1	2	6	315	0.00	29.883 
17:40	57.0	57.0	57.0	50	38.5	2	4	338	0.00	29.883 
17:45	56.7	56.7	56.7	51	38.8	1	4	338	0.00	29.892 
17:50	56.5	56.5	56.5	53	39.6	2	5	315	0.00	29.892 
17:55	56.3	56.3	56.3	54	39.9	2	6	338	0.00	29.892 
18:00	56.3	56.3	56.3	55	40.3	1	5	270	0.00	29.895 
18:05	56.6	56.6	56.6	52	39.2	3	6	338	0.00	29.895 
18:10	56.7	56.7	56.7	54	40.2	3	7	315	0.00	29.895 
18:15	56.6	56.6	56.6	54	40.1	3	7	292	0.00	29.909 
18:20	56.6	56.6	56.6	52	39.2	3	10	270	0.00	29.909 
18:25	56.6	56.6	56.6	50	38.2	3	6	338	0.00	29.909 
18:30	56.2	56.2	56.2	44	34.6	3	8	292	0.00	29.921 
18:35	55.9	55.9	55.9	47	36.0	3	5	292	0.00	29.921 
18:40	55.6	55.6	55.6	47	35.7	3	9	270	0.00	29.921 
18:45	55.3	55.3	55.3	47	35.4	3	9	292	0.00	29.930 
18:50	55.0	55.0	55.0	48	35.7	2	5	292	0.00	29.930 
18:55	55.0	55.0	55.0	46	34.6	3	6	292	0.00	29.930 
19:00	54.5	54.5	54.5	46	34.1	3	7	270	0.00	29.929 
19:05	54.1	54.1	54.1	45	33.2	3	6	338	0.00	29.929 
19:10	53.9	53.9	53.9	44	32.5	2	6	270	0.00	29.929 
19:15	53.6	53.6	53.6	43	31.7	3	7	270	0.00	29.934 
19:20	53.2	53.2	53.2	44	31.9	3	10	270	0.00	29.934 
19:25	53.1	53.1	53.1	42	30.6	3	9	270	0.00	29.934 
19:30	52.6	52.6	52.6	42	30.2	3	9	292	0.00	29.940 
19:35	52.3	52.3	52.3	42	29.9	3	7	270	0.00	29.940 
19:40	52.0	52.0	52.0	42	29.6	2	7	270	0.00	29.940 
19:45	51.9	51.9	51.9	42	29.5	1	4	270	0.00	29.941 
19:50	51.7	51.7	51.7	42	29.4	1	4	270	0.00	29.941 
19:55	51.6	51.6	51.6	41	28.7	2	4	270	0.00	29.941 
20:00	51.3	51.3	51.3	42	29.0	1	3	338	0.00	29.948 
20:05	51.0	51.0	51.0	40	27.5	2	4	315	0.00	29.948 
20:10	50.8	50.8	50.8	39	26.7	2	5	270	0.00	29.948 
20:15	50.4	50.4	50.4	39	26.4	2	6	270	0.00	29.957 
20:20	49.9	49.9	49.9	40	26.6	1	4	315	0.00	29.957 
20:25	49.6	49.6	49.6	41	26.9	1	3	270	0.00	29.957 
20:30	49.2	49.2	49.2	43	27.7	1	4	315	0.00	29.966 
20:35	48.8	48.8	48.8	45	28.4	2	6	270	0.00	29.966 
20:40	48.3	48.3	48.3	47	29.0	3	7	292	0.00	29.966 
20:45	48.0	48.0	48.0	49	29.8	2	7	270	0.00	29.978 
20:50	47.6	47.6	47.6	50	29.9	1	4	270	0.00	29.978 
20:55	47.3	47.3	47.3	52	30.6	2	6	270	0.00	29.978 
21:00	47.0	47.0	47.0	53	30.8	2	5	315	0.00	29.992 
21:05	46.7	46.7	46.7	54	30.9	1	4	270	0.00	29.992 
21:10	46.4	46.4	46.4	56	31.6	2	6	315	0.00	29.992 
21:15	46.2	46.2	46.2	57	31.8	2	7	270	0.00	29.996 
21:20	46.0	46.0	46.0	58	32.1	1	3	338	0.00	29.996 
21:25	45.7	45.7	45.7	58	31.8	1	4	315	0.00	29.996 
21:30	45.4	45.4	45.4	59	31.9	1	5	315	0.00	30.008 
21:35	45.2	45.2	45.2	59	31.7	1	7	315	0.00	30.008 
21:40	45.1	45.1	45.1	59	31.6	1	4	315	0.00	30.008 
21:45	44.8	44.8	44.8	60	31.8	1	5	270	0.00	30.016 
21:50	44.6	44.6	44.6	60	31.6	2	5	315	0.00	30.016 
21:55	44.3	44.3	44.3	61	31.7	1	3	315	0.00	30.016 
22:00	44.2	44.2	44.2	62	32.0	2	5	292	0.00	30.028 
22:05	44.1	44.1	44.1	62	31.9	2	4	270	0.00	30.028 
22:10	43.8	43.8	43.8	62	31.6	1	5	270	0.00	30.028 
22:15	43.6	43.6	43.6	63	31.8	2	5	270	0.00	30.034 
22:20	43.3	43.3	43.3	64	32.0	2	9	292	0.00	30.034 
22:25	43.2	43.2	43.2	64	31.9	2	6	292	0.00	30.034 
22:30	42.9	42.9	42.9	65	32.0	1	4	292	0.00	30.038 
22:35	42.8	42.8	42.8	65	31.9	1	4	270	0.00	30.038 
22:40	42.5	42.5	42.5	66	32.0	1	5	292	0.00	30.038 
22:45	42.3	42.3	42.3	66	31.8	1	3	292	0.00	30.054 
22:50	42.1	42.1	42.1	67	31.9	1	3	315	0.00	30.054 
22:55	41.9	41.9	41.9	67	31.8	1	4	292	0.00	30.054 
23:00	41.6	41.6	41.6	67	31.5	1	3	292	0.00	30.056 
23:05	41.5	41.5	41.5	68	31.7	1	3	292	0.00	30.056 
23:10	41.3	41.3	41.3	68	31.5	1	3	292	0.00	30.056 
23:15	41.2	41.2	41.2	68	31.5	1	4	292	0.00	30.068 
23:20	41.1	41.1	41.1	68	31.4	2	4	292	0.00	30.068 
23:25	41.1	41.1	41.1	68	31.4	1	3	292	0.00	30.068 
23:30	40.9	40.9	40.9	68	31.2	2	5	292	0.00	30.084 
23:35	40.8	40.8	40.8	68	31.1	1	3	338	0.00	30.084 
23:40	40.6	40.6	40.6	68	30.9	1	4	292	0.00	30.084 
23:45	40.5	40.5	40.5	68	30.8	1	4	292	0.00	30.085 
23:50	40.3	40.3	40.3	68	30.6	1	4	338	0.00	30.085 
23:55	40.2	40.2	40.2	69	30.9	0	2	270	0.00	30.085 

CoCoRaHS
IN-AL-39
A2 Web Hosting
Creative Commons License
GoDaddy
search engine by freefind advanced

loaded 2018-11-13 17:25:14 • last modified 2010-11-18 10:43:29
Privacy PolicyDisclaimer
• wx.awcolley.com is powered by PmWiki v.2002016 •
• all content (unless otherwise noted) © 2018 A W Colley